sensor_id;sensor_type;location;lat;lon;timestamp;P1;durP1;ratioP1;P2;durP2;ratioP2
57627;SDS011;43451;49.060;10.616;2022-11-15T00:01:36;7.75;;;5.30;;
57627;SDS011;43451;49.060;10.616;2022-11-15T00:04:03;9.68;;;5.65;;
57627;SDS011;43451;49.060;10.616;2022-11-15T00:06:29;8.13;;;4.85;;
57627;SDS011;43451;49.060;10.616;2022-11-15T00:08:54;7.22;;;5.30;;
57627;SDS011;43451;49.060;10.616;2022-11-15T00:11:19;6.43;;;4.97;;
57627;SDS011;43451;49.060;10.616;2022-11-15T00:13:45;9.82;;;5.13;;
57627;SDS011;43451;49.060;10.616;2022-11-15T00:16:10;8.15;;;4.90;;
57627;SDS011;43451;49.060;10.616;2022-11-15T00:18:36;8.80;;;5.18;;
57627;SDS011;43451;49.060;10.616;2022-11-15T00:21:06;7.32;;;4.93;;
57627;SDS011;43451;49.060;10.616;2022-11-15T00:23:36;8.43;;;5.60;;
57627;SDS011;43451;49.060;10.616;2022-11-15T00:26:02;7.40;;;4.97;;
57627;SDS011;43451;49.060;10.616;2022-11-15T00:28:28;6.45;;;4.78;;
57627;SDS011;43451;49.060;10.616;2022-11-15T00:30:54;7.95;;;5.40;;
57627;SDS011;43451;49.060;10.616;2022-11-15T00:33:24;7.32;;;5.03;;
57627;SDS011;43451;49.060;10.616;2022-11-15T00:35:49;7.32;;;5.07;;
57627;SDS011;43451;49.060;10.616;2022-11-15T00:38:15;8.18;;;5.32;;
57627;SDS011;43451;49.060;10.616;2022-11-15T00:40:40;7.72;;;5.43;;
57627;SDS011;43451;49.060;10.616;2022-11-15T00:43:06;6.95;;;5.07;;
57627;SDS011;43451;49.060;10.616;2022-11-15T00:45:31;8.52;;;5.47;;
57627;SDS011;43451;49.060;10.616;2022-11-15T00:47:57;8.00;;;5.15;;
57627;SDS011;43451;49.060;10.616;2022-11-15T00:50:22;6.65;;;5.07;;
57627;SDS011;43451;49.060;10.616;2022-11-15T00:52:47;9.10;;;5.35;;
57627;SDS011;43451;49.060;10.616;2022-11-15T00:55:13;6.65;;;5.00;;
57627;SDS011;43451;49.060;10.616;2022-11-15T00:57:41;7.70;;;5.38;;
57627;SDS011;43451;49.060;10.616;2022-11-15T01:00:06;9.35;;;5.28;;
57627;SDS011;43451;49.060;10.616;2022-11-15T01:02:32;7.32;;;5.03;;
57627;SDS011;43451;49.060;10.616;2022-11-15T01:04:58;8.27;;;5.35;;
57627;SDS011;43451;49.060;10.616;2022-11-15T01:07:23;8.00;;;5.70;;
57627;SDS011;43451;49.060;10.616;2022-11-15T01:09:48;8.40;;;5.25;;
57627;SDS011;43451;49.060;10.616;2022-11-15T01:12:14;8.50;;;5.15;;
57627;SDS011;43451;49.060;10.616;2022-11-15T01:14:39;6.85;;;5.38;;
57627;SDS011;43451;49.060;10.616;2022-11-15T01:17:05;7.78;;;5.43;;
57627;SDS011;43451;49.060;10.616;2022-11-15T01:19:30;10.80;;;5.38;;
57627;SDS011;43451;49.060;10.616;2022-11-15T01:21:55;8.52;;;5.68;;
57627;SDS011;43451;49.060;10.616;2022-11-15T01:24:21;7.30;;;5.45;;
57627;SDS011;43451;49.060;10.616;2022-11-15T01:26:46;7.40;;;5.47;;
57627;SDS011;43451;49.060;10.616;2022-11-15T01:29:11;10.98;;;6.00;;
57627;SDS011;43451;49.060;10.616;2022-11-15T01:31:37;8.05;;;5.32;;
57627;SDS011;43451;49.060;10.616;2022-11-15T01:34:03;6.97;;;5.07;;
57627;SDS011;43451;49.060;10.616;2022-11-15T01:36:28;10.25;;;5.50;;
57627;SDS011;43451;49.060;10.616;2022-11-15T01:38:54;7.03;;;5.07;;
57627;SDS011;43451;49.060;10.616;2022-11-15T01:41:22;6.72;;;4.90;;
57627;SDS011;43451;49.060;10.616;2022-11-15T01:43:52;6.70;;;4.80;;
57627;SDS011;43451;49.060;10.616;2022-11-15T01:46:27;6.78;;;4.72;;
57627;SDS011;43451;49.060;10.616;2022-11-15T01:51:25;7.15;;;4.65;;
57627;SDS011;43451;49.060;10.616;2022-11-15T01:53:55;7.78;;;4.90;;
57627;SDS011;43451;49.060;10.616;2022-11-15T01:56:25;6.50;;;5.00;;
57627;SDS011;43451;49.060;10.616;2022-11-15T01:58:55;7.72;;;4.40;;
57627;SDS011;43451;49.060;10.616;2022-11-15T02:01:21;6.15;;;4.60;;
57627;SDS011;43451;49.060;10.616;2022-11-15T02:03:52;6.28;;;4.78;;
57627;SDS011;43451;49.060;10.616;2022-11-15T02:06:22;6.60;;;4.85;;
57627;SDS011;43451;49.060;10.616;2022-11-15T02:08:49;7.32;;;4.70;;
57627;SDS011;43451;49.060;10.616;2022-11-15T02:11:15;5.13;;;4.32;;
57627;SDS011;43451;49.060;10.616;2022-11-15T02:13:41;6.47;;;4.63;;
57627;SDS011;43451;49.060;10.616;2022-11-15T02:22:09;9.10;;;4.82;;
57627;SDS011;43451;49.060;10.616;2022-11-15T02:24:51;8.30;;;4.85;;
57627;SDS011;43451;49.060;10.616;2022-11-15T02:32:50;5.90;;;4.88;;
57627;SDS011;43451;49.060;10.616;2022-11-15T02:41:44;6.97;;;4.90;;
57627;SDS011;43451;49.060;10.616;2022-11-15T02:44:24;10.68;;;5.03;;
57627;SDS011;43451;49.060;10.616;2022-11-15T02:46:59;8.05;;;5.47;;
57627;SDS011;43451;49.060;10.616;2022-11-15T02:49:39;5.95;;;4.60;;
57627;SDS011;43451;49.060;10.616;2022-11-15T02:52:07;7.68;;;4.75;;
57627;SDS011;43451;49.060;10.616;2022-11-15T02:54:33;6.53;;;4.78;;
57627;SDS011;43451;49.060;10.616;2022-11-15T02:57:04;7.15;;;5.15;;
57627;SDS011;43451;49.060;10.616;2022-11-15T03:07:23;7.53;;;5.20;;
57627;SDS011;43451;49.060;10.616;2022-11-15T03:09:56;8.68;;;5.32;;
57627;SDS011;43451;49.060;10.616;2022-11-15T03:12:36;7.35;;;5.00;;
57627;SDS011;43451;49.060;10.616;2022-11-15T03:15:27;7.47;;;5.03;;
57627;SDS011;43451;49.060;10.616;2022-11-15T03:18:07;7.18;;;4.78;;
57627;SDS011;43451;49.060;10.616;2022-11-15T03:20:48;8.02;;;5.30;;
57627;SDS011;43451;49.060;10.616;2022-11-15T03:23:15;7.72;;;5.00;;
57627;SDS011;43451;49.060;10.616;2022-11-15T03:25:43;9.00;;;4.90;;
57627;SDS011;43451;49.060;10.616;2022-11-15T03:28:18;8.30;;;5.18;;
57627;SDS011;43451;49.060;10.616;2022-11-15T03:30:48;6.28;;;5.03;;
57627;SDS011;43451;49.060;10.616;2022-11-15T03:33:16;7.10;;;5.18;;
57627;SDS011;43451;49.060;10.616;2022-11-15T03:35:43;7.30;;;5.22;;
57627;SDS011;43451;49.060;10.616;2022-11-15T03:38:17;6.20;;;4.70;;
57627;SDS011;43451;49.060;10.616;2022-11-15T03:41:00;6.10;;;4.57;;
57627;SDS011;43451;49.060;10.616;2022-11-15T03:46:26;7.55;;;5.03;;
57627;SDS011;43451;49.060;10.616;2022-11-15T03:49:24;8.65;;;5.05;;
57627;SDS011;43451;49.060;10.616;2022-11-15T03:51:56;8.75;;;5.03;;
57627;SDS011;43451;49.060;10.616;2022-11-15T03:54:22;6.75;;;4.88;;
57627;SDS011;43451;49.060;10.616;2022-11-15T03:56:47;6.90;;;5.07;;
57627;SDS011;43451;49.060;10.616;2022-11-15T03:59:13;9.20;;;5.72;;
57627;SDS011;43451;49.060;10.616;2022-11-15T04:01:38;8.98;;;5.30;;
57627;SDS011;43451;49.060;10.616;2022-11-15T04:04:04;7.57;;;5.30;;
57627;SDS011;43451;49.060;10.616;2022-11-15T04:06:29;7.32;;;5.38;;
57627;SDS011;43451;49.060;10.616;2022-11-15T04:08:54;8.93;;;5.80;;
57627;SDS011;43451;49.060;10.616;2022-11-15T04:11:20;7.20;;;5.13;;
57627;SDS011;43451;49.060;10.616;2022-11-15T04:13:45;7.97;;;5.43;;
57627;SDS011;43451;49.060;10.616;2022-11-15T04:16:10;9.48;;;5.75;;
57627;SDS011;43451;49.060;10.616;2022-11-15T04:18:36;6.90;;;4.95;;
57627;SDS011;43451;49.060;10.616;2022-11-15T04:21:02;6.65;;;5.45;;
57627;SDS011;43451;49.060;10.616;2022-11-15T04:23:46;7.43;;;4.90;;
57627;SDS011;43451;49.060;10.616;2022-11-15T04:26:31;9.55;;;5.18;;
57627;SDS011;43451;49.060;10.616;2022-11-15T04:28:57;7.47;;;4.70;;
57627;SDS011;43451;49.060;10.616;2022-11-15T04:31:41;6.97;;;5.15;;
57627;SDS011;43451;49.060;10.616;2022-11-15T04:34:06;6.80;;;4.60;;
57627;SDS011;43451;49.060;10.616;2022-11-15T04:36:32;6.65;;;5.15;;
57627;SDS011;43451;49.060;10.616;2022-11-15T04:39:16;6.35;;;4.85;;
57627;SDS011;43451;49.060;10.616;2022-11-15T04:41:41;7.63;;;5.50;;
57627;SDS011;43451;49.060;10.616;2022-11-15T04:44:07;7.57;;;5.35;;
57627;SDS011;43451;49.060;10.616;2022-11-15T04:46:32;8.95;;;5.32;;
57627;SDS011;43451;49.060;10.616;2022-11-15T04:48:58;6.22;;;4.95;;
57627;SDS011;43451;49.060;10.616;2022-11-15T04:51:23;7.85;;;5.32;;
57627;SDS011;43451;49.060;10.616;2022-11-15T04:53:48;6.65;;;4.55;;
57627;SDS011;43451;49.060;10.616;2022-11-15T04:56:14;7.68;;;5.43;;
57627;SDS011;43451;49.060;10.616;2022-11-15T04:58:39;6.85;;;5.47;;
57627;SDS011;43451;49.060;10.616;2022-11-15T05:01:08;7.60;;;5.47;;
57627;SDS011;43451;49.060;10.616;2022-11-15T05:03:34;8.20;;;5.45;;
57627;SDS011;43451;49.060;10.616;2022-11-15T05:06:18;9.95;;;5.65;;
57627;SDS011;43451;49.060;10.616;2022-11-15T05:08:44;7.28;;;5.07;;
57627;SDS011;43451;49.060;10.616;2022-11-15T05:11:09;7.47;;;5.95;;
57627;SDS011;43451;49.060;10.616;2022-11-15T05:13:34;8.80;;;5.82;;
57627;SDS011;43451;49.060;10.616;2022-11-15T05:16:00;9.57;;;6.15;;
57627;SDS011;43451;49.060;10.616;2022-11-15T05:18:25;9.73;;;6.35;;
57627;SDS011;43451;49.060;10.616;2022-11-15T05:20:50;9.30;;;5.90;;
57627;SDS011;43451;49.060;10.616;2022-11-15T05:23:16;8.82;;;6.18;;
57627;SDS011;43451;49.060;10.616;2022-11-15T05:25:41;7.95;;;5.95;;
57627;SDS011;43451;49.060;10.616;2022-11-15T05:28:07;8.77;;;6.20;;
57627;SDS011;43451;49.060;10.616;2022-11-15T05:30:32;9.07;;;6.13;;
57627;SDS011;43451;49.060;10.616;2022-11-15T05:32:57;10.52;;;6.32;;
57627;SDS011;43451;49.060;10.616;2022-11-15T05:35:57;10.18;;;6.43;;
57627;SDS011;43451;49.060;10.616;2022-11-15T05:38:19;8.85;;;6.15;;
57627;SDS011;43451;49.060;10.616;2022-11-15T05:40:44;9.60;;;6.72;;
57627;SDS011;43451;49.060;10.616;2022-11-15T05:43:10;9.85;;;6.38;;
57627;SDS011;43451;49.060;10.616;2022-11-15T05:45:36;7.97;;;6.22;;
57627;SDS011;43451;49.060;10.616;2022-11-15T05:48:03;8.15;;;5.63;;
57627;SDS011;43451;49.060;10.616;2022-11-15T05:50:32;8.05;;;5.72;;
57627;SDS011;43451;49.060;10.616;2022-11-15T05:52:59;7.57;;;5.60;;
57627;SDS011;43451;49.060;10.616;2022-11-15T05:55:26;9.93;;;6.03;;
57627;SDS011;43451;49.060;10.616;2022-11-15T05:57:52;9.77;;;6.32;;
57627;SDS011;43451;49.060;10.616;2022-11-15T06:00:17;8.38;;;5.90;;
57627;SDS011;43451;49.060;10.616;2022-11-15T06:02:43;9.98;;;6.50;;
57627;SDS011;43451;49.060;10.616;2022-11-15T06:05:08;9.40;;;6.20;;
57627;SDS011;43451;49.060;10.616;2022-11-15T06:07:34;8.35;;;6.20;;
57627;SDS011;43451;49.060;10.616;2022-11-15T06:09:59;8.43;;;6.30;;
57627;SDS011;43451;49.060;10.616;2022-11-15T06:12:24;9.63;;;6.60;;
57627;SDS011;43451;49.060;10.616;2022-11-15T06:14:50;8.85;;;6.35;;
57627;SDS011;43451;49.060;10.616;2022-11-15T06:17:15;9.23;;;6.32;;
57627;SDS011;43451;49.060;10.616;2022-11-15T06:19:40;13.07;;;6.50;;
57627;SDS011;43451;49.060;10.616;2022-11-15T06:22:06;11.07;;;6.45;;
57627;SDS011;43451;49.060;10.616;2022-11-15T06:24:31;8.50;;;6.18;;
57627;SDS011;43451;49.060;10.616;2022-11-15T06:26:56;8.48;;;5.95;;
57627;SDS011;43451;49.060;10.616;2022-11-15T06:29:22;8.40;;;5.97;;
57627;SDS011;43451;49.060;10.616;2022-11-15T06:31:48;9.40;;;6.18;;
57627;SDS011;43451;49.060;10.616;2022-11-15T06:34:13;8.55;;;6.20;;
57627;SDS011;43451;49.060;10.616;2022-11-15T06:36:38;7.95;;;5.93;;
57627;SDS011;43451;49.060;10.616;2022-11-15T06:39:04;9.25;;;6.28;;
57627;SDS011;43451;49.060;10.616;2022-11-15T06:41:30;9.82;;;7.13;;
57627;SDS011;43451;49.060;10.616;2022-11-15T06:43:56;9.70;;;6.78;;
57627;SDS011;43451;49.060;10.616;2022-11-15T06:46:22;10.40;;;6.10;;
57627;SDS011;43451;49.060;10.616;2022-11-15T06:48:50;10.75;;;6.13;;
57627;SDS011;43451;49.060;10.616;2022-11-15T06:51:15;8.00;;;5.80;;
57627;SDS011;43451;49.060;10.616;2022-11-15T06:53:41;10.18;;;6.45;;
57627;SDS011;43451;49.060;10.616;2022-11-15T06:56:06;9.85;;;6.55;;
57627;SDS011;43451;49.060;10.616;2022-11-15T06:58:33;9.70;;;6.57;;
57627;SDS011;43451;49.060;10.616;2022-11-15T07:01:09;10.10;;;7.00;;
57627;SDS011;43451;49.060;10.616;2022-11-15T07:03:40;9.00;;;6.88;;
57627;SDS011;43451;49.060;10.616;2022-11-15T07:06:07;10.20;;;7.10;;
57627;SDS011;43451;49.060;10.616;2022-11-15T07:08:33;11.02;;;7.05;;
57627;SDS011;43451;49.060;10.616;2022-11-15T07:11:00;9.27;;;6.75;;
57627;SDS011;43451;49.060;10.616;2022-11-15T07:13:27;10.77;;;7.00;;
57627;SDS011;43451;49.060;10.616;2022-11-15T07:15:54;11.85;;;7.32;;
57627;SDS011;43451;49.060;10.616;2022-11-15T07:18:19;10.70;;;7.47;;
57627;SDS011;43451;49.060;10.616;2022-11-15T07:20:45;10.25;;;6.90;;
57627;SDS011;43451;49.060;10.616;2022-11-15T07:23:11;9.02;;;6.88;;
57627;SDS011;43451;49.060;10.616;2022-11-15T07:25:36;10.50;;;6.82;;
57627;SDS011;43451;49.060;10.616;2022-11-15T07:28:02;9.05;;;6.25;;
57627;SDS011;43451;49.060;10.616;2022-11-15T07:30:28;9.98;;;6.57;;
57627;SDS011;43451;49.060;10.616;2022-11-15T07:32:59;8.98;;;6.10;;
57627;SDS011;43451;49.060;10.616;2022-11-15T07:35:26;9.38;;;6.25;;
57627;SDS011;43451;49.060;10.616;2022-11-15T07:37:53;9.02;;;6.43;;
57627;SDS011;43451;49.060;10.616;2022-11-15T07:40:19;9.37;;;7.00;;
57627;SDS011;43451;49.060;10.616;2022-11-15T07:42:45;11.07;;;6.78;;
57627;SDS011;43451;49.060;10.616;2022-11-15T07:45:21;8.55;;;6.38;;
57627;SDS011;43451;49.060;10.616;2022-11-15T07:47:49;8.80;;;6.53;;
57627;SDS011;43451;49.060;10.616;2022-11-15T07:50:15;8.55;;;6.15;;
57627;SDS011;43451;49.060;10.616;2022-11-15T07:52:42;9.25;;;6.53;;
57627;SDS011;43451;49.060;10.616;2022-11-15T07:55:07;11.27;;;6.32;;
57627;SDS011;43451;49.060;10.616;2022-11-15T07:57:33;8.60;;;6.28;;
57627;SDS011;43451;49.060;10.616;2022-11-15T07:59:59;8.80;;;6.07;;
57627;SDS011;43451;49.060;10.616;2022-11-15T08:02:25;8.77;;;5.75;;
57627;SDS011;43451;49.060;10.616;2022-11-15T08:04:50;9.35;;;5.80;;
57627;SDS011;43451;49.060;10.616;2022-11-15T08:07:15;8.38;;;6.03;;
57627;SDS011;43451;49.060;10.616;2022-11-15T08:09:41;8.52;;;5.90;;
57627;SDS011;43451;49.060;10.616;2022-11-15T08:12:06;7.90;;;6.10;;
57627;SDS011;43451;49.060;10.616;2022-11-15T08:14:32;10.65;;;5.95;;
57627;SDS011;43451;49.060;10.616;2022-11-15T08:16:57;8.13;;;5.78;;
57627;SDS011;43451;49.060;10.616;2022-11-15T08:19:23;9.95;;;5.68;;
57627;SDS011;43451;49.060;10.616;2022-11-15T08:21:48;7.95;;;5.72;;
57627;SDS011;43451;49.060;10.616;2022-11-15T08:24:14;9.65;;;5.93;;
57627;SDS011;43451;49.060;10.616;2022-11-15T08:26:39;8.63;;;5.68;;
57627;SDS011;43451;49.060;10.616;2022-11-15T08:29:05;7.10;;;5.43;;
57627;SDS011;43451;49.060;10.616;2022-11-15T08:31:34;8.07;;;5.60;;
57627;SDS011;43451;49.060;10.616;2022-11-15T08:34:01;7.13;;;5.47;;
57627;SDS011;43451;49.060;10.616;2022-11-15T08:36:27;7.97;;;5.60;;
57627;SDS011;43451;49.060;10.616;2022-11-15T08:38:53;7.82;;;5.38;;
57627;SDS011;43451;49.060;10.616;2022-11-15T08:41:24;7.47;;;5.43;;
57627;SDS011;43451;49.060;10.616;2022-11-15T08:43:54;7.72;;;5.30;;
57627;SDS011;43451;49.060;10.616;2022-11-15T08:46:19;7.38;;;5.72;;
57627;SDS011;43451;49.060;10.616;2022-11-15T08:48:45;9.57;;;5.78;;
57627;SDS011;43451;49.060;10.616;2022-11-15T08:51:10;7.40;;;5.45;;
57627;SDS011;43451;49.060;10.616;2022-11-15T08:53:36;8.18;;;5.82;;
57627;SDS011;43451;49.060;10.616;2022-11-15T08:56:01;6.85;;;5.22;;
57627;SDS011;43451;49.060;10.616;2022-11-15T08:58:27;8.20;;;5.45;;
57627;SDS011;43451;49.060;10.616;2022-11-15T09:00:53;8.40;;;5.93;;
57627;SDS011;43451;49.060;10.616;2022-11-15T09:03:18;8.23;;;5.82;;
57627;SDS011;43451;49.060;10.616;2022-11-15T09:05:43;7.50;;;5.82;;
57627;SDS011;43451;49.060;10.616;2022-11-15T09:08:09;8.98;;;5.70;;
57627;SDS011;43451;49.060;10.616;2022-11-15T09:10:34;6.60;;;5.40;;
57627;SDS011;43451;49.060;10.616;2022-11-15T09:13:00;6.68;;;5.50;;
57627;SDS011;43451;49.060;10.616;2022-11-15T09:15:25;6.70;;;5.32;;
57627;SDS011;43451;49.060;10.616;2022-11-15T09:17:51;7.65;;;5.22;;
57627;SDS011;43451;49.060;10.616;2022-11-15T09:20:16;8.90;;;5.50;;
57627;SDS011;43451;49.060;10.616;2022-11-15T09:22:42;6.50;;;5.35;;
57627;SDS011;43451;49.060;10.616;2022-11-15T09:25:07;6.40;;;4.90;;
57627;SDS011;43451;49.060;10.616;2022-11-15T09:27:33;8.43;;;5.20;;
57627;SDS011;43451;49.060;10.616;2022-11-15T09:29:58;8.52;;;5.50;;
57627;SDS011;43451;49.060;10.616;2022-11-15T09:32:27;7.53;;;5.32;;
57627;SDS011;43451;49.060;10.616;2022-11-15T09:34:53;6.70;;;5.20;;
57627;SDS011;43451;49.060;10.616;2022-11-15T09:37:19;9.23;;;5.75;;
57627;SDS011;43451;49.060;10.616;2022-11-15T09:39:44;7.57;;;5.43;;
57627;SDS011;43451;49.060;10.616;2022-11-15T09:50:27;7.28;;;5.45;;
57627;SDS011;43451;49.060;10.616;2022-11-15T09:52:54;7.60;;;5.22;;
57627;SDS011;43451;49.060;10.616;2022-11-15T09:55:20;7.30;;;5.47;;
57627;SDS011;43451;49.060;10.616;2022-11-15T09:57:57;7.45;;;5.28;;
57627;SDS011;43451;49.060;10.616;2022-11-15T10:00:35;7.55;;;5.18;;
57627;SDS011;43451;49.060;10.616;2022-11-15T10:05:47;8.18;;;5.50;;
57627;SDS011;43451;49.060;10.616;2022-11-15T10:11:02;6.70;;;4.93;;
57627;SDS011;43451;49.060;10.616;2022-11-15T10:13:31;6.45;;;4.65;;
57627;SDS011;43451;49.060;10.616;2022-11-15T10:24:31;5.82;;;4.53;;
57627;SDS011;43451;49.060;10.616;2022-11-15T10:27:04;5.95;;;4.40;;
57627;SDS011;43451;49.060;10.616;2022-11-15T10:29:36;6.57;;;4.70;;
57627;SDS011;43451;49.060;10.616;2022-11-15T10:32:09;5.78;;;4.45;;
57627;SDS011;43451;49.060;10.616;2022-11-15T10:34:39;6.40;;;4.75;;
57627;SDS011;43451;49.060;10.616;2022-11-15T10:37:05;5.28;;;4.78;;
57627;SDS011;43451;49.060;10.616;2022-11-15T10:39:31;6.65;;;4.63;;
57627;SDS011;43451;49.060;10.616;2022-11-15T10:41:58;6.60;;;4.90;;
57627;SDS011;43451;49.060;10.616;2022-11-15T10:44:48;6.72;;;5.25;;
57627;SDS011;43451;49.060;10.616;2022-11-15T10:47:20;7.05;;;5.30;;
57627;SDS011;43451;49.060;10.616;2022-11-15T10:49:56;6.78;;;5.30;;
57627;SDS011;43451;49.060;10.616;2022-11-15T10:52:27;6.88;;;5.25;;
57627;SDS011;43451;49.060;10.616;2022-11-15T10:54:56;9.07;;;5.35;;
57627;SDS011;43451;49.060;10.616;2022-11-15T10:57:38;7.20;;;5.25;;
57627;SDS011;43451;49.060;10.616;2022-11-15T11:00:26;9.90;;;5.35;;
57627;SDS011;43451;49.060;10.616;2022-11-15T11:03:20;7.75;;;5.05;;
57627;SDS011;43451;49.060;10.616;2022-11-15T11:05:47;8.60;;;5.40;;
57627;SDS011;43451;49.060;10.616;2022-11-15T11:10:38;7.18;;;5.60;;
57627;SDS011;43451;49.060;10.616;2022-11-15T11:13:13;8.85;;;5.85;;
57627;SDS011;43451;49.060;10.616;2022-11-15T11:24:32;8.00;;;5.68;;
57627;SDS011;43451;49.060;10.616;2022-11-15T11:27:52;7.15;;;5.78;;
57627;SDS011;43451;49.060;10.616;2022-11-15T11:41:20;6.95;;;4.95;;
57627;SDS011;43451;49.060;10.616;2022-11-15T11:49:39;6.38;;;5.13;;
57627;SDS011;43451;49.060;10.616;2022-11-15T11:52:19;6.03;;;5.28;;
57627;SDS011;43451;49.060;10.616;2022-11-15T12:00:03;6.13;;;5.20;;
57627;SDS011;43451;49.060;10.616;2022-11-15T12:02:42;10.05;;;5.40;;
57627;SDS011;43451;49.060;10.616;2022-11-15T12:05:18;7.35;;;5.20;;
57627;SDS011;43451;49.060;10.616;2022-11-15T12:07:53;8.63;;;5.95;;
57627;SDS011;43451;49.060;10.616;2022-11-15T12:10:24;7.63;;;5.90;;
57627;SDS011;43451;49.060;10.616;2022-11-15T12:18:49;6.97;;;5.53;;
57627;SDS011;43451;49.060;10.616;2022-11-15T12:24:28;7.45;;;5.60;;
57627;SDS011;43451;49.060;10.616;2022-11-15T12:29:29;7.13;;;5.68;;
57627;SDS011;43451;49.060;10.616;2022-11-15T12:32:04;8.00;;;5.75;;
57627;SDS011;43451;49.060;10.616;2022-11-15T12:34:44;7.47;;;4.97;;
57627;SDS011;43451;49.060;10.616;2022-11-15T12:40:19;7.65;;;5.57;;
57627;SDS011;43451;49.060;10.616;2022-11-15T12:45:34;7.85;;;6.05;;
57627;SDS011;43451;49.060;10.616;2022-11-15T13:06:40;6.72;;;5.30;;
57627;SDS011;43451;49.060;10.616;2022-11-15T13:11:54;6.15;;;4.72;;
57627;SDS011;43451;49.060;10.616;2022-11-15T13:20:31;5.85;;;4.47;;
57627;SDS011;43451;49.060;10.616;2022-11-15T13:22:41;5.80;;;4.75;;
57627;SDS011;43451;49.060;10.616;2022-11-15T13:30:39;12.05;;;4.55;;
57627;SDS011;43451;49.060;10.616;2022-11-15T13:33:07;5.97;;;4.45;;
57627;SDS011;43451;49.060;10.616;2022-11-15T13:35:38;5.45;;;4.40;;
57627;SDS011;43451;49.060;10.616;2022-11-15T13:38:11;5.70;;;4.70;;
57627;SDS011;43451;49.060;10.616;2022-11-15T13:41:13;5.82;;;4.72;;
57627;SDS011;43451;49.060;10.616;2022-11-15T13:43:47;6.05;;;4.65;;
57627;SDS011;43451;49.060;10.616;2022-11-15T13:51:55;6.82;;;4.22;;
57627;SDS011;43451;49.060;10.616;2022-11-15T13:57:38;6.13;;;4.30;;
57627;SDS011;43451;49.060;10.616;2022-11-15T14:00:41;5.45;;;4.63;;
57627;SDS011;43451;49.060;10.616;2022-11-15T14:03:47;5.88;;;4.20;;
57627;SDS011;43451;49.060;10.616;2022-11-15T14:07:00;7.25;;;4.68;;
57627;SDS011;43451;49.060;10.616;2022-11-15T14:09:31;5.93;;;5.00;;
57627;SDS011;43451;49.060;10.616;2022-11-15T14:11:59;6.60;;;5.00;;
57627;SDS011;43451;49.060;10.616;2022-11-15T14:14:26;11.03;;;5.47;;
57627;SDS011;43451;49.060;10.616;2022-11-15T14:17:02;8.57;;;5.35;;
57627;SDS011;43451;49.060;10.616;2022-11-15T14:22:09;8.18;;;5.45;;
57627;SDS011;43451;49.060;10.616;2022-11-15T14:24:35;7.20;;;5.20;;
57627;SDS011;43451;49.060;10.616;2022-11-15T14:27:22;6.40;;;5.15;;
57627;SDS011;43451;49.060;10.616;2022-11-15T14:29:52;8.00;;;5.65;;
57627;SDS011;43451;49.060;10.616;2022-11-15T14:32:22;7.80;;;6.05;;
57627;SDS011;43451;49.060;10.616;2022-11-15T14:34:59;11.95;;;5.88;;
57627;SDS011;43451;49.060;10.616;2022-11-15T14:37:28;8.82;;;5.90;;
57627;SDS011;43451;49.060;10.616;2022-11-15T14:39:58;7.70;;;5.70;;
57627;SDS011;43451;49.060;10.616;2022-11-15T14:42:23;8.13;;;6.05;;
57627;SDS011;43451;49.060;10.616;2022-11-15T14:44:50;8.63;;;6.15;;
57627;SDS011;43451;49.060;10.616;2022-11-15T14:47:16;9.32;;;5.47;;
57627;SDS011;43451;49.060;10.616;2022-11-15T14:49:41;10.75;;;6.32;;
57627;SDS011;43451;49.060;10.616;2022-11-15T14:52:10;9.43;;;6.13;;
57627;SDS011;43451;49.060;10.616;2022-11-15T14:54:47;7.68;;;5.80;;
57627;SDS011;43451;49.060;10.616;2022-11-15T14:57:13;8.65;;;6.15;;
57627;SDS011;43451;49.060;10.616;2022-11-15T14:59:38;8.77;;;5.80;;
57627;SDS011;43451;49.060;10.616;2022-11-15T15:02:11;14.27;;;6.63;;
57627;SDS011;43451;49.060;10.616;2022-11-15T15:04:52;8.10;;;5.60;;
57627;SDS011;43451;49.060;10.616;2022-11-15T15:07:19;9.48;;;5.60;;
57627;SDS011;43451;49.060;10.616;2022-11-15T15:09:45;10.98;;;5.80;;
57627;SDS011;43451;49.060;10.616;2022-11-15T15:12:15;10.75;;;5.93;;
57627;SDS011;43451;49.060;10.616;2022-11-15T15:14:46;7.78;;;6.07;;
57627;SDS011;43451;49.060;10.616;2022-11-15T15:17:12;8.38;;;5.70;;
57627;SDS011;43451;49.060;10.616;2022-11-15T15:19:38;9.25;;;6.97;;
57627;SDS011;43451;49.060;10.616;2022-11-15T15:22:03;8.65;;;6.20;;
57627;SDS011;43451;49.060;10.616;2022-11-15T15:24:29;12.73;;;6.68;;
57627;SDS011;43451;49.060;10.616;2022-11-15T15:26:55;11.05;;;6.82;;
57627;SDS011;43451;49.060;10.616;2022-11-15T15:29:20;11.63;;;7.95;;
57627;SDS011;43451;49.060;10.616;2022-11-15T15:31:45;15.98;;;11.55;;
57627;SDS011;43451;49.060;10.616;2022-11-15T15:34:11;15.95;;;8.68;;
57627;SDS011;43451;49.060;10.616;2022-11-15T15:36:36;22.35;;;13.32;;
57627;SDS011;43451;49.060;10.616;2022-11-15T15:39:02;22.10;;;13.75;;
57627;SDS011;43451;49.060;10.616;2022-11-15T15:41:28;23.35;;;15.55;;
57627;SDS011;43451;49.060;10.616;2022-11-15T15:43:53;22.02;;;12.50;;
57627;SDS011;43451;49.060;10.616;2022-11-15T15:46:19;15.95;;;10.95;;
57627;SDS011;43451;49.060;10.616;2022-11-15T15:48:46;23.50;;;14.50;;
57627;SDS011;43451;49.060;10.616;2022-11-15T15:51:11;12.82;;;8.50;;
57627;SDS011;43451;49.060;10.616;2022-11-15T15:53:37;11.73;;;7.10;;
57627;SDS011;43451;49.060;10.616;2022-11-15T15:56:03;11.07;;;7.55;;
57627;SDS011;43451;49.060;10.616;2022-11-15T15:58:29;13.07;;;8.05;;
57627;SDS011;43451;49.060;10.616;2022-11-15T16:00:57;15.23;;;9.20;;
57627;SDS011;43451;49.060;10.616;2022-11-15T16:03:22;13.35;;;8.20;;
57627;SDS011;43451;49.060;10.616;2022-11-15T16:05:49;19.08;;;10.40;;
57627;SDS011;43451;49.060;10.616;2022-11-15T16:08:18;18.00;;;11.60;;
57627;SDS011;43451;49.060;10.616;2022-11-15T16:10:45;16.45;;;11.35;;
57627;SDS011;43451;49.060;10.616;2022-11-15T16:13:11;16.27;;;10.15;;
57627;SDS011;43451;49.060;10.616;2022-11-15T16:15:37;11.75;;;7.80;;
57627;SDS011;43451;49.060;10.616;2022-11-15T16:18:03;12.32;;;7.47;;
57627;SDS011;43451;49.060;10.616;2022-11-15T16:23:02;12.00;;;6.97;;
57627;SDS011;43451;49.060;10.616;2022-11-15T16:25:30;9.15;;;6.00;;
57627;SDS011;43451;49.060;10.616;2022-11-15T16:28:31;7.90;;;5.80;;
57627;SDS011;43451;49.060;10.616;2022-11-15T16:31:09;9.30;;;5.60;;
57627;SDS011;43451;49.060;10.616;2022-11-15T16:33:35;7.10;;;5.47;;
57627;SDS011;43451;49.060;10.616;2022-11-15T16:36:02;7.10;;;5.07;;
57627;SDS011;43451;49.060;10.616;2022-11-15T16:38:28;9.00;;;5.00;;
57627;SDS011;43451;49.060;10.616;2022-11-15T16:40:54;8.32;;;4.90;;
57627;SDS011;43451;49.060;10.616;2022-11-15T16:43:19;5.68;;;4.43;;
57627;SDS011;43451;49.060;10.616;2022-11-15T16:48:44;8.88;;;4.50;;
57627;SDS011;43451;49.060;10.616;2022-11-15T16:51:10;11.15;;;5.70;;
57627;SDS011;43451;49.060;10.616;2022-11-15T16:53:35;7.55;;;5.25;;
57627;SDS011;43451;49.060;10.616;2022-11-15T16:56:01;8.45;;;5.97;;
57627;SDS011;43451;49.060;10.616;2022-11-15T16:58:28;7.40;;;5.20;;
57627;SDS011;43451;49.060;10.616;2022-11-15T17:00:54;9.82;;;5.78;;
57627;SDS011;43451;49.060;10.616;2022-11-15T17:03:20;8.57;;;5.57;;
57627;SDS011;43451;49.060;10.616;2022-11-15T17:05:47;7.87;;;5.77;;
57627;SDS011;43451;49.060;10.616;2022-11-15T17:08:13;8.55;;;5.88;;
57627;SDS011;43451;49.060;10.616;2022-11-15T17:10:39;9.02;;;5.85;;
57627;SDS011;43451;49.060;10.616;2022-11-15T17:13:05;8.30;;;5.43;;
57627;SDS011;43451;49.060;10.616;2022-11-15T17:15:32;8.57;;;6.03;;